Airport Name : Pula

Other Name : Pula

ICAO : LDPL

IATA : PUY

FAA :

Latitude : 44.893533

Longitude : 13.922192

Country : Croatia

Local Date and Time : 24 Sep 2020 13:56

 

TAF (Terminal Aerodrome Forecast)

TAF LDPL 241125Z 2412/2512 13004KT 9999 SCT015 TX24/2413Z TN18/2503Z PROB30 TEMPO 2412/2414 25008KT -TSRA FEW030CB SCT035 BECMG 2419/2421 14012KT TEMPO 2421/2507 22020G30KT 2000 +TSRA BKN008 SCT020CB BKN025 BECMG 2501/2503 21014KT

 

METAR (METeorological Aerodrome Report)

LDPL 241130Z VRB05KT 9999 SCT020 23/18 Q1012 NOSIG

LDPL 241100Z 13006KT 9999 FEW015TCU SCT020 22/19 Q1012 NOSIG

LDPL 241030Z 13004KT 050V180 9999 SCT015 22/19 Q1012 NOSIG

LDPL 241000Z 19003KT 140V250 9999 SCT015 23/19 Q1012 NOSIG

LDPL 240930Z VRB03KT 9999 SCT015 24/19 Q1012 NOSIG

LDPL 240900Z 10005KT 070V130 9999 SCT025 22/19 Q1012 NOSIG

LDPL 240830Z 10005KT 070V160 9999 FEW025 22/19 Q1012 NOSIG

LDPL 240800Z 09006KT 070V130 CAVOK 21/18 Q1012 NOSIG

To Charter a Jet Click here.